createdAt,value
2022-11-19T00:00:37.223Z,20.20
2022-11-19T00:03:06.558Z,19.80
2022-11-19T00:05:40.709Z,19.60
2022-11-19T00:08:10.810Z,19.40
2022-11-19T00:10:40.715Z,22.20
2022-11-19T00:13:10.700Z,19.10
2022-11-19T00:15:40.271Z,20.80
2022-11-19T00:18:12.868Z,21.70
2022-11-19T00:20:42.272Z,20.80
2022-11-19T00:23:11.549Z,18.80
2022-11-19T00:25:41.030Z,21.80
2022-11-19T00:28:10.467Z,20.40
2022-11-19T00:30:48.458Z,21.40
2022-11-19T00:33:18.510Z,22.00
2022-11-19T00:35:48.050Z,19.50
2022-11-19T00:38:18.281Z,20.60
2022-11-19T00:40:47.739Z,19.00
2022-11-19T00:43:35.113Z,21.40
2022-11-19T00:46:04.721Z,19.80
2022-11-19T00:48:35.082Z,21.60
2022-11-19T00:51:08.650Z,21.10
2022-11-19T00:53:38.200Z,20.50
2022-11-19T00:56:10.321Z,20.80
2022-11-19T00:58:41.108Z,21.00
2022-11-19T01:01:11.779Z,22.00
2022-11-19T01:03:42.402Z,20.60
2022-11-19T01:06:15.255Z,24.40
2022-11-19T01:08:48.864Z,22.90
2022-11-19T01:11:20.173Z,20.50
2022-11-19T01:13:49.779Z,20.00
2022-11-19T01:16:21.882Z,21.30
2022-11-19T01:18:51.997Z,21.90
2022-11-19T01:21:23.349Z,20.70
2022-11-19T01:23:53.062Z,20.40
2022-11-19T01:26:23.080Z,21.40
2022-11-19T01:28:53.233Z,24.00
2022-11-19T01:31:25.136Z,20.50
2022-11-19T01:33:55.359Z,19.90
2022-11-19T01:36:26.357Z,19.30
2022-11-19T01:38:56.621Z,22.10
2022-11-19T01:41:27.922Z,21.90
2022-11-19T01:43:59.120Z,22.30
2022-11-19T01:46:36.132Z,19.70
2022-11-19T01:49:07.932Z,23.20
2022-11-19T01:51:41.348Z,20.70
2022-11-19T01:54:16.261Z,17.10
2022-11-19T01:56:45.959Z,20.40
2022-11-19T01:59:18.108Z,22.90
2022-11-19T02:01:47.932Z,21.10
2022-11-19T02:04:19.441Z,21.90
2022-11-19T02:06:49.126Z,22.70
2022-11-19T02:09:18.763Z,23.10
2022-11-19T02:12:07.961Z,27.80
2022-11-19T02:15:03.303Z,23.60
2022-11-19T02:17:47.600Z,24.60
2022-11-19T02:20:49.571Z,20.10
2022-11-19T02:23:47.859Z,19.80
2022-11-19T02:26:51.522Z,21.60
2022-11-19T02:29:41.803Z,21.50
2022-11-19T02:32:16.321Z,24.40
2022-11-19T02:34:52.270Z,21.60
2022-11-19T02:37:28.970Z,23.60
2022-11-19T02:40:06.612Z,20.80
2022-11-19T02:42:43.137Z,22.20
2022-11-19T02:45:17.120Z,19.00
2022-11-19T02:47:49.830Z,21.30
2022-11-19T02:50:24.374Z,28.80
2022-11-19T02:52:56.752Z,27.00
2022-11-19T02:55:27.790Z,23.00
2022-11-19T02:58:03.529Z,24.40
2022-11-19T03:01:00.214Z,23.50
2022-11-19T03:03:49.702Z,22.50
2022-11-19T03:06:22.152Z,24.30
2022-11-19T03:08:51.888Z,23.70
2022-11-19T03:11:24.744Z,20.10
2022-11-19T03:14:17.409Z,23.30
2022-11-19T03:16:55.513Z,22.20
2022-11-19T03:19:34.020Z,23.30
2022-11-19T03:22:12.972Z,22.20
2022-11-19T03:24:47.751Z,27.10
2022-11-19T03:27:24.561Z,26.00
2022-11-19T03:29:59.342Z,20.90
2022-11-19T03:32:33.109Z,21.40
2022-11-19T03:35:08.056Z,25.00
2022-11-19T03:37:43.859Z,25.50
2022-11-19T03:40:18.220Z,23.80
2022-11-19T03:42:53.650Z,19.20
2022-11-19T03:45:28.559Z,18.60
2022-11-19T03:48:02.248Z,18.00
2022-11-19T03:53:05.491Z,15.00
2022-11-19T03:55:50.223Z,15.20
2022-11-19T03:58:19.700Z,15.00
2022-11-19T04:00:50.942Z,15.10
2022-11-19T04:03:20.505Z,14.00
2022-11-19T04:05:49.880Z,17.10
2022-11-19T04:08:19.120Z,16.40
2022-11-19T04:10:50.282Z,14.90
2022-11-19T04:13:19.819Z,14.80
2022-11-19T04:15:49.263Z,15.00
2022-11-19T04:18:18.410Z,16.00
2022-11-19T04:20:47.792Z,18.80
2022-11-19T04:23:17.232Z,17.70
2022-11-19T04:25:48.467Z,18.80
2022-11-19T04:28:17.873Z,17.10
2022-11-19T04:30:48.902Z,14.80
2022-11-19T04:33:18.347Z,15.60
2022-11-19T04:35:47.809Z,15.40
2022-11-19T04:38:17.101Z,20.50
2022-11-19T04:40:49.114Z,17.70
2022-11-19T04:43:19.519Z,17.40
2022-11-19T04:45:49.048Z,18.30
2022-11-19T04:48:18.231Z,23.30
2022-11-19T04:50:47.742Z,19.20
2022-11-19T04:53:17.350Z,20.30
2022-11-19T04:55:48.409Z,20.50
2022-11-19T04:58:17.694Z,19.70
2022-11-19T05:00:50.179Z,18.60
2022-11-19T05:03:19.681Z,15.80
2022-11-19T05:05:49.459Z,18.80
2022-11-19T05:08:18.932Z,18.40
2022-11-19T05:10:48.511Z,16.00
2022-11-19T05:13:17.811Z,16.40
2022-11-19T05:15:47.229Z,15.60
2022-11-19T05:18:19.391Z,17.80
2022-11-19T05:20:49.620Z,18.10
2022-11-19T05:23:19.320Z,18.60
2022-11-19T05:25:48.720Z,16.70
2022-11-19T05:28:18.082Z,16.50
2022-11-19T05:30:47.963Z,15.80
2022-11-19T05:33:17.308Z,16.10
2022-11-19T05:35:47.940Z,16.40
2022-11-19T05:38:18.123Z,16.00
2022-11-19T05:40:47.540Z,19.90
2022-11-19T05:43:17.730Z,17.40
2022-11-19T05:45:47.082Z,17.90
2022-11-19T05:48:16.723Z,17.80
2022-11-19T05:50:51.696Z,19.30
2022-11-19T05:53:21.020Z,18.00
2022-11-19T05:55:50.611Z,17.40
2022-11-19T05:58:19.833Z,18.30
2022-11-19T06:00:53.580Z,24.30
2022-11-19T06:03:23.171Z,19.40
2022-11-19T06:05:52.920Z,16.20
2022-11-19T06:08:22.272Z,17.10
2022-11-19T06:10:51.681Z,17.40
2022-11-19T06:13:25.913Z,16.40
2022-11-19T06:15:55.591Z,21.80
2022-11-19T06:18:24.991Z,17.70
2022-11-19T06:20:54.410Z,19.10
2022-11-19T06:23:23.853Z,18.80
2022-11-19T06:25:55.273Z,17.30
2022-11-19T06:28:24.769Z,21.40
2022-11-19T06:30:54.268Z,19.40
2022-11-19T06:33:23.532Z,17.60
2022-11-19T06:35:53.065Z,15.80
2022-11-19T06:38:22.679Z,17.40
2022-11-19T06:40:52.110Z,19.20
2022-11-19T06:43:21.538Z,18.90
2022-11-19T06:45:50.869Z,18.50
2022-11-19T06:48:20.316Z,20.50
2022-11-19T06:50:51.271Z,18.20
2022-11-19T06:53:20.670Z,19.10
2022-11-19T06:55:56.262Z,22.40
2022-11-19T06:58:25.799Z,21.30
2022-11-19T07:01:00.545Z,19.90
2022-11-19T07:03:30.421Z,20.40
2022-11-19T07:06:02.350Z,21.80
2022-11-19T07:08:35.020Z,20.00
2022-11-19T07:11:25.331Z,18.10
2022-11-19T07:13:58.489Z,21.40
2022-11-19T07:16:30.013Z,19.70
2022-11-19T07:19:01.197Z,17.60
2022-11-19T07:21:31.580Z,18.40
2022-11-19T07:24:04.873Z,18.60
2022-11-19T07:26:35.160Z,19.90
2022-11-19T07:29:06.793Z,22.70
2022-11-19T07:31:36.964Z,21.10
2022-11-19T07:34:08.572Z,23.90
2022-11-19T07:36:38.363Z,21.10
2022-11-19T07:39:08.000Z,26.60
2022-11-19T07:41:56.199Z,24.70
2022-11-19T07:44:26.649Z,23.10
2022-11-19T07:46:56.109Z,24.10
2022-11-19T07:49:31.825Z,22.00
2022-11-19T07:52:07.000Z,22.50
2022-11-19T07:54:39.061Z,22.60
2022-11-19T07:57:08.733Z,22.60
2022-11-19T07:59:38.121Z,20.50
2022-11-19T08:02:10.125Z,22.80
2022-11-19T08:04:41.600Z,21.30
2022-11-19T08:07:11.237Z,22.60
2022-11-19T08:09:40.571Z,19.20
2022-11-19T08:12:09.989Z,20.20
2022-11-19T08:14:39.641Z,20.30
2022-11-19T08:17:27.523Z,41.60
2022-11-19T08:19:57.181Z,38.10
2022-11-19T08:22:27.919Z,24.90
2022-11-19T08:24:59.105Z,20.20
2022-11-19T08:27:30.013Z,23.40
2022-11-19T08:30:01.660Z,22.80
2022-11-19T08:32:32.030Z,20.20
2022-11-19T08:35:02.763Z,19.70
2022-11-19T08:37:33.069Z,23.20
2022-11-19T08:40:02.802Z,23.20
2022-11-19T08:42:50.329Z,26.50
2022-11-19T08:45:21.932Z,24.00
2022-11-19T08:47:51.527Z,21.10
2022-11-19T08:50:21.810Z,19.10
2022-11-19T08:53:00.354Z,18.60
2022-11-19T08:55:33.139Z,18.30
2022-11-19T08:58:05.718Z,19.40
2022-11-19T09:00:37.504Z,19.40
2022-11-19T09:03:07.170Z,21.30
2022-11-19T09:05:37.009Z,18.30
2022-11-19T09:08:07.431Z,18.80
2022-11-19T09:10:37.685Z,21.10
2022-11-19T09:13:07.929Z,18.70
2022-11-19T09:15:37.739Z,18.40
2022-11-19T09:18:07.277Z,20.50
2022-11-19T09:20:37.281Z,18.60
2022-11-19T09:23:06.881Z,20.00
2022-11-19T09:25:36.849Z,17.20
2022-11-19T09:28:06.689Z,18.20
2022-11-19T09:30:36.704Z,20.70
2022-11-19T09:33:06.091Z,17.20
2022-11-19T09:35:35.518Z,18.00
2022-11-19T09:38:06.019Z,15.10
2022-11-19T09:40:38.242Z,17.90
2022-11-19T09:43:16.537Z,14.40
2022-11-19T09:45:58.179Z,14.20
2022-11-19T09:48:34.810Z,10.50
2022-11-19T09:51:08.714Z,7.30
2022-11-19T09:53:46.594Z,8.20
2022-11-19T09:56:22.761Z,9.30
2022-11-19T09:58:57.491Z,14.00
2022-11-19T10:01:29.990Z,11.60
2022-11-19T10:04:01.813Z,12.30
2022-11-19T10:06:46.389Z,16.00
2022-11-19T10:09:40.050Z,12.00
2022-11-19T10:12:26.229Z,18.00
2022-11-19T10:15:13.979Z,13.30
2022-11-19T10:17:58.318Z,10.00
2022-11-19T10:20:44.809Z,15.80
2022-11-19T10:23:19.090Z,34.30
2022-11-19T10:25:51.866Z,16.90
2022-11-19T10:28:25.940Z,41.40
2022-11-19T10:31:07.325Z,41.50
2022-11-19T10:33:43.083Z,13.90
2022-11-19T10:36:19.559Z,15.70
2022-11-19T10:39:04.760Z,14.70
2022-11-19T10:41:45.163Z,14.30
2022-11-19T10:44:42.809Z,12.00
2022-11-19T10:47:17.887Z,12.60
2022-11-19T10:49:53.709Z,18.50
2022-11-19T10:52:31.200Z,12.60
2022-11-19T10:55:12.779Z,15.70
2022-11-19T10:57:42.478Z,13.80
2022-11-19T11:00:20.988Z,14.00
2022-11-19T11:03:02.622Z,17.40
2022-11-19T11:05:53.927Z,29.00
2022-11-19T11:08:23.602Z,16.40
2022-11-19T11:10:53.523Z,13.30
2022-11-19T11:13:54.304Z,14.10
2022-11-19T11:16:26.311Z,15.10
2022-11-19T11:18:58.733Z,14.40
2022-11-19T11:21:35.560Z,16.90
2022-11-19T11:24:07.671Z,15.70
2022-11-19T11:26:37.610Z,15.30
2022-11-19T11:29:26.481Z,17.70
2022-11-19T11:31:56.021Z,16.60
2022-11-19T11:34:33.929Z,16.80
2022-11-19T11:37:06.522Z,15.00
2022-11-19T11:39:37.571Z,18.10
2022-11-19T11:42:16.066Z,15.50
2022-11-19T11:44:52.485Z,14.90
2022-11-19T11:47:28.989Z,21.80
2022-11-19T11:50:07.080Z,22.40
2022-11-19T11:52:43.038Z,18.20
2022-11-19T11:55:29.330Z,17.30
2022-11-19T11:58:00.739Z,19.10
2022-11-19T12:00:36.870Z,15.90
2022-11-19T12:03:08.410Z,17.10
2022-11-19T12:05:58.101Z,19.00
2022-11-19T12:08:43.401Z,18.80
2022-11-19T12:11:20.473Z,20.10
2022-11-19T12:13:59.422Z,32.30
2022-11-19T12:16:50.157Z,32.30
2022-11-19T12:19:40.824Z,18.00
2022-11-19T12:22:20.846Z,18.30
2022-11-19T12:25:05.630Z,19.70
2022-11-19T12:27:41.890Z,18.60
2022-11-19T12:30:18.171Z,20.00
2022-11-19T12:33:11.804Z,20.10
2022-11-19T12:35:52.998Z,19.40
2022-11-19T12:38:37.946Z,20.00
2022-11-19T12:41:21.872Z,21.30
2022-11-19T12:43:56.748Z,21.80
2022-11-19T12:46:39.180Z,20.20
2022-11-19T12:49:26.698Z,20.00
2022-11-19T12:52:03.499Z,17.80
2022-11-19T12:54:45.670Z,19.40
2022-11-19T12:57:33.933Z,20.60
2022-11-19T13:00:11.401Z,20.60
2022-11-19T13:02:51.561Z,16.70
2022-11-19T13:05:27.619Z,19.70
2022-11-19T13:08:01.859Z,20.00
2022-11-19T13:10:36.890Z,17.30
2022-11-19T13:13:09.212Z,18.00
2022-11-19T13:15:42.950Z,17.40
2022-11-19T13:20:47.861Z,16.90
2022-11-19T13:23:24.980Z,16.80
2022-11-19T13:25:59.374Z,19.10
2022-11-19T13:28:34.959Z,17.50
2022-11-19T13:31:13.251Z,18.40
2022-11-19T13:33:52.828Z,17.70
2022-11-19T13:36:29.686Z,16.30
2022-11-19T13:39:05.021Z,18.60
2022-11-19T13:42:01.364Z,18.50
2022-11-19T13:44:41.123Z,16.70
2022-11-19T13:47:18.992Z,17.40
2022-11-19T13:49:54.549Z,18.40
2022-11-19T13:52:30.111Z,16.30
2022-11-19T13:55:03.743Z,15.60
2022-11-19T13:57:44.581Z,17.20
2022-11-19T14:00:28.432Z,18.90
2022-11-19T14:03:26.373Z,19.80
2022-11-19T14:06:34.791Z,16.10
2022-11-19T14:09:20.072Z,16.80
2022-11-19T14:12:11.424Z,18.60
2022-11-19T14:15:26.893Z,18.50
2022-11-19T14:18:23.969Z,18.10
2022-11-19T14:21:11.185Z,15.60
2022-11-19T14:24:07.750Z,18.90
2022-11-19T14:27:14.969Z,16.00
2022-11-19T14:30:01.123Z,18.60
2022-11-19T14:32:34.498Z,20.10
2022-11-19T14:35:38.681Z,20.90
2022-11-19T14:38:35.961Z,26.00
2022-11-19T14:41:16.212Z,22.20
2022-11-19T14:44:09.523Z,26.90
2022-11-19T14:46:42.558Z,25.40
2022-11-19T14:49:26.607Z,26.00
2022-11-19T14:51:58.247Z,25.30
2022-11-19T14:54:33.019Z,23.60
2022-11-19T14:57:05.851Z,23.40
2022-11-19T14:59:40.182Z,27.20
2022-11-19T15:02:23.581Z,27.30
2022-11-19T15:04:58.328Z,24.20
2022-11-19T15:07:37.458Z,26.40
2022-11-19T15:10:27.460Z,27.00
2022-11-19T15:13:27.799Z,26.50
2022-11-19T15:16:03.641Z,28.90
2022-11-19T15:19:04.632Z,27.40
2022-11-19T15:22:20.200Z,21.90
2022-11-19T15:25:15.088Z,28.90
2022-11-19T15:28:01.078Z,25.60
2022-11-19T15:30:45.419Z,27.00
2022-11-19T15:33:42.219Z,27.50
2022-11-19T15:36:32.909Z,30.40
2022-11-19T15:39:10.170Z,28.20
2022-11-19T15:41:44.002Z,30.30
2022-11-19T15:44:17.999Z,28.00
2022-11-19T15:46:53.010Z,24.90
2022-11-19T15:49:25.561Z,25.30
2022-11-19T15:52:06.390Z,25.50
2022-11-19T15:54:39.902Z,24.60
2022-11-19T15:57:23.050Z,25.80
2022-11-19T15:59:58.651Z,26.00
2022-11-19T16:02:38.721Z,26.30
2022-11-19T16:05:21.615Z,27.00
2022-11-19T16:07:52.513Z,30.90
2022-11-19T16:10:28.427Z,27.90
2022-11-19T16:13:17.771Z,27.40
2022-11-19T16:16:09.929Z,29.00
2022-11-19T16:18:47.622Z,32.90
2022-11-19T16:21:21.901Z,26.70
2022-11-19T16:24:10.020Z,24.90
2022-11-19T16:26:41.434Z,27.90
2022-11-19T16:29:18.199Z,28.10
2022-11-19T16:31:50.231Z,30.50
2022-11-19T16:34:23.841Z,32.50
2022-11-19T16:39:25.571Z,29.10
2022-11-19T16:42:15.959Z,28.80
2022-11-19T16:44:47.786Z,34.30
2022-11-19T16:47:24.397Z,30.90
2022-11-19T16:50:06.923Z,31.50
2022-11-19T16:52:42.437Z,79.30
2022-11-19T16:55:51.142Z,92.70
2022-11-19T16:58:27.633Z,88.20
2022-11-19T17:00:59.168Z,78.50
2022-11-19T17:03:34.851Z,50.10
2022-11-19T17:06:06.209Z,27.50
2022-11-19T17:08:38.149Z,27.90
2022-11-19T17:11:37.129Z,27.80
2022-11-19T17:14:13.321Z,28.80
2022-11-19T17:16:46.729Z,31.10
2022-11-19T17:19:25.674Z,26.60
2022-11-19T17:22:00.114Z,34.30
2022-11-19T17:24:37.043Z,29.30
2022-11-19T17:27:07.785Z,29.00
2022-11-19T17:29:37.518Z,27.00
2022-11-19T17:32:07.420Z,36.50
2022-11-19T17:34:45.861Z,35.90
2022-11-19T17:37:15.499Z,33.60
2022-11-19T17:39:45.148Z,34.20
2022-11-19T17:42:32.660Z,31.70
2022-11-19T17:45:07.593Z,36.00
2022-11-19T17:47:46.497Z,33.20
2022-11-19T17:50:22.160Z,32.40
2022-11-19T17:53:03.743Z,57.00
2022-11-19T17:55:40.866Z,43.60
2022-11-19T17:58:15.234Z,34.60
2022-11-19T18:00:49.662Z,36.30
2022-11-19T18:03:27.323Z,53.80
2022-11-19T18:06:07.169Z,171.90
2022-11-19T18:08:51.407Z,54.10
2022-11-19T18:11:33.668Z,31.00
2022-11-19T18:14:12.147Z,38.60
2022-11-19T18:16:52.280Z,39.10
2022-11-19T18:19:30.085Z,35.60
2022-11-19T18:22:07.301Z,34.50
2022-11-19T18:24:42.350Z,38.00
2022-11-19T18:27:23.470Z,37.60
2022-11-19T18:30:21.688Z,36.00
2022-11-19T18:33:06.515Z,33.20
2022-11-19T18:35:52.489Z,38.00
2022-11-19T18:38:33.120Z,37.10
2022-11-19T18:41:08.494Z,36.50
2022-11-19T18:44:05.921Z,40.00
2022-11-19T18:46:45.780Z,36.20
2022-11-19T18:49:23.145Z,36.10
2022-11-19T18:52:03.289Z,36.90
2022-11-19T18:54:43.214Z,32.80
2022-11-19T18:57:21.920Z,34.80
2022-11-19T19:00:01.311Z,40.60
2022-11-19T19:02:37.961Z,34.50
2022-11-19T19:05:21.512Z,36.10
2022-11-19T19:07:57.422Z,38.60
2022-11-19T19:10:34.091Z,40.30
2022-11-19T19:13:09.569Z,40.60
2022-11-19T19:15:49.040Z,39.50
2022-11-19T19:18:23.622Z,39.10
2022-11-19T19:20:59.346Z,42.00
2022-11-19T19:23:34.688Z,42.80
2022-11-19T19:26:13.847Z,43.50
2022-11-19T19:28:50.907Z,42.40
2022-11-19T19:31:33.373Z,43.60
2022-11-19T19:34:11.511Z,43.10
2022-11-19T19:36:53.522Z,41.40
2022-11-19T19:39:32.497Z,40.90
2022-11-19T19:42:08.532Z,42.70
2022-11-19T19:44:48.348Z,45.70
2022-11-19T19:47:31.747Z,41.50
2022-11-19T19:50:21.421Z,38.20
2022-11-19T19:53:08.163Z,43.00
2022-11-19T19:55:54.540Z,49.30
2022-11-19T19:58:33.622Z,44.50
2022-11-19T20:01:15.099Z,45.80
2022-11-19T20:03:56.612Z,47.60
2022-11-19T20:06:33.030Z,39.30
2022-11-19T20:09:09.011Z,46.20
2022-11-19T20:11:47.122Z,45.60
2022-11-19T20:14:27.669Z,42.30
2022-11-19T20:17:06.102Z,40.10
2022-11-19T20:19:41.341Z,41.10
2022-11-19T20:22:16.049Z,39.20
2022-11-19T20:24:56.930Z,46.10
2022-11-19T20:27:35.285Z,47.70
2022-11-19T20:30:12.830Z,50.00
2022-11-19T20:32:49.551Z,45.40
2022-11-19T20:35:26.382Z,45.90
2022-11-19T20:38:05.051Z,45.20
2022-11-19T20:40:40.289Z,43.10
2022-11-19T20:43:52.448Z,40.90
2022-11-19T20:46:28.055Z,42.10
2022-11-19T20:49:02.065Z,43.40
2022-11-19T20:51:38.470Z,46.20
2022-11-19T20:54:18.288Z,43.40
2022-11-19T20:56:52.758Z,47.50
2022-11-19T20:59:27.756Z,43.70
2022-11-19T21:02:03.213Z,47.20
2022-11-19T21:04:40.000Z,43.90
2022-11-19T21:07:14.380Z,43.70
2022-11-19T21:09:48.943Z,39.60
2022-11-19T21:12:22.179Z,43.60
2022-11-19T21:14:57.997Z,48.50
2022-11-19T21:17:38.146Z,49.70
2022-11-19T21:20:12.682Z,48.20
2022-11-19T21:22:50.060Z,90.40
2022-11-19T21:25:29.179Z,206.10
2022-11-19T21:28:07.667Z,154.20
2022-11-19T21:30:46.648Z,291.70
2022-11-19T21:33:27.320Z,126.90
2022-11-19T21:36:01.757Z,91.10
2022-11-19T21:38:35.945Z,92.00
2022-11-19T21:43:43.257Z,46.60
2022-11-19T21:46:17.684Z,56.10
2022-11-19T21:48:54.148Z,51.40
2022-11-19T21:51:26.867Z,49.20
2022-11-19T21:54:01.652Z,47.80
2022-11-19T21:56:38.639Z,45.40
2022-11-19T21:59:14.920Z,47.30
2022-11-19T22:01:54.717Z,49.60
2022-11-19T22:04:31.408Z,54.10
2022-11-19T22:07:09.044Z,57.70
2022-11-19T22:09:43.399Z,57.60
2022-11-19T22:14:52.557Z,55.40
2022-11-19T22:17:32.683Z,59.40
2022-11-19T22:20:08.839Z,50.50
2022-11-19T22:22:45.750Z,48.40
2022-11-19T22:25:22.970Z,59.30
2022-11-19T22:27:57.068Z,52.60
2022-11-19T22:30:33.874Z,61.50
2022-11-19T22:33:09.941Z,61.60
2022-11-19T22:35:44.741Z,60.20
2022-11-19T22:38:18.412Z,61.90
2022-11-19T22:40:52.088Z,74.20
2022-11-19T22:43:26.306Z,75.20
2022-11-19T22:45:59.569Z,75.80
2022-11-19T22:48:33.833Z,62.40
2022-11-19T22:51:10.312Z,72.50
2022-11-19T22:53:47.150Z,66.20
2022-11-19T22:56:24.484Z,85.00
2022-11-19T22:58:59.713Z,82.00
2022-11-19T23:01:33.451Z,82.40
2022-11-19T23:04:10.018Z,76.20
2022-11-19T23:06:43.388Z,80.20
2022-11-19T23:12:06.005Z,75.90
2022-11-19T23:14:41.558Z,80.00
2022-11-19T23:17:14.404Z,80.70
2022-11-19T23:19:48.398Z,65.00
2022-11-19T23:22:21.483Z,85.20
2022-11-19T23:24:55.063Z,99.30
2022-11-19T23:27:26.821Z,94.00
2022-11-19T23:29:59.452Z,88.50
2022-11-19T23:32:32.649Z,71.70
2022-11-19T23:35:05.056Z,67.80
2022-11-19T23:37:36.671Z,76.30
2022-11-19T23:40:11.151Z,68.80
2022-11-19T23:42:45.708Z,69.60
2022-11-19T23:45:21.744Z,76.80
2022-11-19T23:47:54.862Z,91.50
2022-11-19T23:50:27.332Z,72.20
2022-11-19T23:52:59.934Z,64.90
2022-11-19T23:55:32.837Z,63.30
2022-11-19T23:58:05.135Z,84.00
